Accueil
METAR-TAF:

METAR-TAF

Aéroports :

Aéroport Santander Seve Ballesteros

Santander, Espagne

latitude: 43-26N, longitude: 003-49W, altitude: 6 m

Observation

Le bulletin a été fait il y a 25 minutes, à 19:30 UTC
Vent 4 kt de est, variant entre nord-est et est/sud-est
Température 11°C
Humidité 71%
Pression 1028 hPa
Visibilité 10 km ou plus
Nuages épars à une hauteur de 2500 ft

METAR: LEXJ 251930Z 09004KT 050V120 9999 SCT025 11/06 Q1028

Heure: 20:55 (19:55 UTC)

Prévision

Le bulletin a été fait il y a 5 heures et 55 minutes, à 14:00 UTC
Prévision valable du 25 à 15 UTC au 26 à 15 UTC
Vent 9 kt de nord-est
Visibilité 10 km ou plus
Nuages épars à une hauteur de 2000 ft
Temporairement
du 26 à 09 UTC au 26 à 15 UTC
Vent 15 kt de nord-est avec des rafales jusqu'à 25 kt

TAF: LEXJ 251400Z 2515/2615 05009KT 9999 SCT020 TX14/2515Z TN07/2606Z TEMPO 2609/2615 04015G25KT

Observations et prévisions météorologiques de plus de 4000 aéroports (messages METAR et TAF).

Les stations disponibles sont représentées par des disques jaunes et rouges sur la carte.

Passer la souris dessus pour voir le nom de la station.

Cliquer dessus pour voir les observations et prévisions météorologiques.

Pour changer de carte: cliquez sur les boutons verts avec une croix noire pour zoomer, sur le bouton vert avec un tiret pour effectuer un zoom arrière, ou sur les flèches vertes pour les cartes adjacentes.


METAR-TAF: